RYR873M EBCI-LIME
Flight info
| Callsign | RYR873M |
|---|---|
| Flight time | 1h 7m |
| Altitude | 33000 |
| Route | RITAX UT27 ROUSY DCT GTQ DCT POGOL DCT LASAT DCT DEVDI DCT RIPUS DCT GERSA DCT SOSON DCT ODINA |
| Aircraft | B38M/M-SDE1FGHILORVWXY/HB1 |
Departure
| Time | 2026-04-27 12:24 |
|---|---|
| Airport | Brussels South Charleroi Airport (EBCI) |
Arrival
| Time | 2026-04-27 13:32 |
|---|---|
| Airport | Il Caravaggio International Airport (LIME) |
| Time | Latitude | Longitude | Altitude | Speed | Heading |
|---|---|---|---|---|---|
| 2026-04-27 11:54 | 50.46769 | 4.46752 | 588 ft | 0 kts | 335° |
| 2026-04-27 12:15 | 50.46760 | 4.46759 | 588 ft | 4 kts | 335° |
| 2026-04-27 12:15 | 50.46739 | 4.46773 | 589 ft | 4 kts | 324° |
| 2026-04-27 12:15 | 50.46729 | 4.46803 | 589 ft | 4 kts | 265° |
| 2026-04-27 12:16 | 50.46735 | 4.46843 | 589 ft | 4 kts | 247° |
| 2026-04-27 12:16 | 50.46739 | 4.46856 | 589 ft | 0 kts | 245° |
| 2026-04-27 12:19 | 50.46728 | 4.46819 | 590 ft | 9 kts | 245° |
| 2026-04-27 12:20 | 50.46688 | 4.46772 | 592 ft | 5 kts | 169° |
| 2026-04-27 12:20 | 50.46634 | 4.46801 | 594 ft | 12 kts | 166° |
| 2026-04-27 12:20 | 50.46590 | 4.46749 | 594 ft | 11 kts | 246° |
| 2026-04-27 12:20 | 50.46539 | 4.46570 | 593 ft | 24 kts | 245° |
| 2026-04-27 12:21 | 50.46460 | 4.46300 | 593 ft | 26 kts | 246° |
| 2026-04-27 12:21 | 50.46386 | 4.46043 | 596 ft | 26 kts | 245° |
| 2026-04-27 12:21 | 50.46309 | 4.45781 | 599 ft | 28 kts | 245° |
| 2026-04-27 12:21 | 50.46224 | 4.45488 | 601 ft | 31 kts | 245° |
| 2026-04-27 12:22 | 50.46139 | 4.45197 | 601 ft | 30 kts | 245° |
| 2026-04-27 12:22 | 50.46058 | 4.44917 | 599 ft | 25 kts | 245° |
| 2026-04-27 12:22 | 50.45983 | 4.44658 | 600 ft | 27 kts | 245° |
| 2026-04-27 12:22 | 50.45895 | 4.44402 | 602 ft | 28 kts | 233° |
| 2026-04-27 12:23 | 50.45780 | 4.44171 | 599 ft | 22 kts | 232° |
| 2026-04-27 12:23 | 50.45688 | 4.43999 | 596 ft | 14 kts | 210° |
| 2026-04-27 12:23 | 50.45626 | 4.44024 | 596 ft | 6 kts | 107° |
| 2026-04-27 12:23 | 50.45642 | 4.44109 | 596 ft | 21 kts | 65° |
| 2026-04-27 12:24 | 50.45808 | 4.44676 | 602 ft | 92 kts | 65° |
| 2026-04-27 12:24 | 50.46158 | 4.45883 | 599 ft | 148 kts | 66° |
| 2026-04-27 12:24 | 50.46588 | 4.47443 | 1033 ft | 162 kts | 68° |
| 2026-04-27 12:24 | 50.47056 | 4.49158 | 1588 ft | 177 kts | 63° |
| 2026-04-27 12:25 | 50.47819 | 4.50780 | 2171 ft | 197 kts | 45° |
| 2026-04-27 12:25 | 50.48746 | 4.52287 | 3253 ft | 194 kts | 47° |
| 2026-04-27 12:25 | 50.49710 | 4.53885 | 3907 ft | 210 kts | 47° |
| 2026-04-27 12:25 | 50.50767 | 4.55631 | 4351 ft | 230 kts | 47° |
| 2026-04-27 12:26 | 50.51918 | 4.57524 | 4855 ft | 249 kts | 47° |
| 2026-04-27 12:26 | 50.53082 | 4.59671 | 5315 ft | 267 kts | 54° |
| 2026-04-27 12:26 | 50.54220 | 4.62028 | 6087 ft | 271 kts | 53° |
| 2026-04-27 12:26 | 50.55379 | 4.64402 | 6837 ft | 278 kts | 53° |
| 2026-04-27 12:27 | 50.56579 | 4.66837 | 7605 ft | 282 kts | 53° |
| 2026-04-27 12:27 | 50.57784 | 4.69280 | 8447 ft | 285 kts | 52° |
| 2026-04-27 12:27 | 50.59014 | 4.71768 | 9181 ft | 290 kts | 52° |
| 2026-04-27 12:27 | 50.60260 | 4.74287 | 9951 ft | 293 kts | 52° |
| 2026-04-27 12:28 | 50.61522 | 4.76837 | 10627 ft | 300 kts | 52° |
| 2026-04-27 12:28 | 50.62719 | 4.79657 | 10962 ft | 320 kts | 69° |
| 2026-04-27 12:28 | 50.62994 | 4.83141 | 11550 ft | 328 kts | 99° |
| 2026-04-27 12:28 | 50.62234 | 4.86540 | 12150 ft | 335 kts | 123° |
| 2026-04-27 12:29 | 50.60716 | 4.89292 | 12914 ft | 335 kts | 140° |
| 2026-04-27 12:29 | 50.59073 | 4.91961 | 13605 ft | 343 kts | 135° |
| 2026-04-27 12:29 | 50.57484 | 4.94772 | 14396 ft | 346 kts | 135° |
| 2026-04-27 12:29 | 50.55865 | 4.97625 | 15057 ft | 352 kts | 135° |
| 2026-04-27 12:30 | 50.54219 | 5.00516 | 15758 ft | 357 kts | 135° |
| 2026-04-27 12:30 | 50.52570 | 5.03406 | 16420 ft | 362 kts | 135° |
| 2026-04-27 12:30 | 50.51430 | 5.05405 | 16884 ft | 365 kts | 135° |
| 2026-04-27 12:30 | 50.49162 | 5.09372 | 17772 ft | 372 kts | 135° |
| 2026-04-27 12:31 | 50.47421 | 5.12413 | 18426 ft | 377 kts | 134° |
| 2026-04-27 12:31 | 50.45657 | 5.15497 | 19001 ft | 382 kts | 134° |
| 2026-04-27 12:31 | 50.43874 | 5.18607 | 19591 ft | 385 kts | 134° |
| 2026-04-27 12:31 | 50.42076 | 5.21738 | 20178 ft | 388 kts | 135° |
| 2026-04-27 12:32 | 50.40854 | 5.23862 | 20565 ft | 390 kts | 135° |
| 2026-04-27 12:32 | 50.39027 | 5.27033 | 21135 ft | 393 kts | 135° |
| 2026-04-27 12:32 | 50.37189 | 5.30219 | 21709 ft | 396 kts | 135° |
| 2026-04-27 12:32 | 50.35337 | 5.33431 | 22280 ft | 399 kts | 135° |
| 2026-04-27 12:33 | 50.33467 | 5.36667 | 22844 ft | 402 kts | 135° |
| 2026-04-27 12:33 | 50.31581 | 5.39924 | 23407 ft | 405 kts | 135° |
| 2026-04-27 12:33 | 50.29679 | 5.43204 | 23933 ft | 409 kts | 136° |
| 2026-04-27 12:33 | 50.27764 | 5.46504 | 24404 ft | 410 kts | 136° |
| 2026-04-27 12:34 | 50.25838 | 5.49816 | 24891 ft | 413 kts | 136° |
| 2026-04-27 12:34 | 50.23895 | 5.53152 | 25324 ft | 417 kts | 136° |
| 2026-04-27 12:34 | 50.21934 | 5.56517 | 25741 ft | 421 kts | 136° |
| 2026-04-27 12:34 | 50.19980 | 5.59866 | 26188 ft | 424 kts | 136° |
| 2026-04-27 12:35 | 50.17987 | 5.63276 | 26607 ft | 427 kts | 136° |
| 2026-04-27 12:35 | 50.15949 | 5.66756 | 27049 ft | 430 kts | 137° |
| 2026-04-27 12:35 | 50.13946 | 5.70171 | 27461 ft | 433 kts | 137° |
| 2026-04-27 12:35 | 50.11907 | 5.73644 | 27867 ft | 436 kts | 137° |
| 2026-04-27 12:36 | 50.09850 | 5.77147 | 28285 ft | 439 kts | 137° |
| 2026-04-27 12:36 | 50.07645 | 5.80410 | 28691 ft | 434 kts | 151° |
| 2026-04-27 12:36 | 50.05037 | 5.82699 | 29048 ft | 431 kts | 160° |
| 2026-04-27 12:36 | 50.02363 | 5.84944 | 29289 ft | 440 kts | 155° |
| 2026-04-27 12:37 | 49.99736 | 5.87367 | 29784 ft | 439 kts | 156° |
| 2026-04-27 12:37 | 49.97068 | 5.89727 | 30081 ft | 444 kts | 157° |
| 2026-04-27 12:37 | 49.94368 | 5.92073 | 30461 ft | 445 kts | 157° |
| 2026-04-27 12:37 | 49.91650 | 5.94402 | 30735 ft | 448 kts | 158° |
| 2026-04-27 12:38 | 49.88912 | 5.96726 | 31033 ft | 450 kts | 158° |
| 2026-04-27 12:38 | 49.86160 | 5.99056 | 31384 ft | 451 kts | 158° |
| 2026-04-27 12:38 | 49.83398 | 6.01391 | 31690 ft | 453 kts | 158° |
| 2026-04-27 12:38 | 49.80622 | 6.03736 | 31985 ft | 455 kts | 157° |
| 2026-04-27 12:39 | 49.77837 | 6.06085 | 32296 ft | 457 kts | 158° |
| 2026-04-27 12:39 | 49.75035 | 6.08445 | 32610 ft | 459 kts | 158° |
| 2026-04-27 12:39 | 49.72222 | 6.10812 | 32917 ft | 461 kts | 158° |
| 2026-04-27 12:39 | 49.69434 | 6.13153 | 33272 ft | 461 kts | 158° |
| 2026-04-27 12:40 | 49.66622 | 6.15512 | 33721 ft | 460 kts | 158° |
| 2026-04-27 12:40 | 49.63809 | 6.17869 | 34149 ft | 458 kts | 158° |
| 2026-04-27 12:40 | 49.61010 | 6.20212 | 34517 ft | 457 kts | 158° |
| 2026-04-27 12:40 | 49.58216 | 6.22547 | 34839 ft | 457 kts | 158° |
| 2026-04-27 12:41 | 49.55420 | 6.24879 | 35125 ft | 457 kts | 158° |
| 2026-04-27 12:41 | 49.49815 | 6.29547 | 35207 ft | 457 kts | 158° |
| 2026-04-27 12:42 | 49.44234 | 6.34182 | 35205 ft | 456 kts | 158° |
| 2026-04-27 12:42 | 49.38654 | 6.38804 | 35203 ft | 456 kts | 158° |
| 2026-04-27 12:43 | 49.33067 | 6.43421 | 35179 ft | 456 kts | 158° |
| 2026-04-27 12:43 | 49.27470 | 6.48034 | 35192 ft | 457 kts | 158° |
| 2026-04-27 12:44 | 49.21866 | 6.52640 | 35191 ft | 457 kts | 158° |
| 2026-04-27 12:44 | 49.16261 | 6.57235 | 35185 ft | 457 kts | 158° |
| 2026-04-27 12:45 | 49.10656 | 6.61818 | 35172 ft | 457 kts | 158° |
| 2026-04-27 12:45 | 49.05044 | 6.66399 | 35192 ft | 458 kts | 158° |
| 2026-04-27 12:46 | 48.99330 | 6.70515 | 35178 ft | 446 kts | 173° |
| 2026-04-27 12:46 | 48.96306 | 6.71048 | 35182 ft | 433 kts | 188° |
| 2026-04-27 12:46 | 48.93297 | 6.70880 | 35173 ft | 435 kts | 187° |
| 2026-04-27 12:47 | 48.87207 | 6.71007 | 35189 ft | 438 kts | 187° |
| 2026-04-27 12:47 | 48.81115 | 6.70891 | 35188 ft | 438 kts | 188° |
| 2026-04-27 12:48 | 48.75065 | 6.70680 | 35180 ft | 437 kts | 188° |
| 2026-04-27 12:48 | 48.68982 | 6.70442 | 35183 ft | 437 kts | 188° |
| 2026-04-27 12:49 | 48.62899 | 6.70206 | 35174 ft | 437 kts | 188° |
| 2026-04-27 12:49 | 48.56812 | 6.69970 | 35178 ft | 437 kts | 188° |
| 2026-04-27 12:50 | 48.50724 | 6.69735 | 35175 ft | 437 kts | 188° |
| 2026-04-27 12:50 | 48.44638 | 6.69500 | 35159 ft | 438 kts | 188° |
| 2026-04-27 12:51 | 48.38547 | 6.69265 | 35172 ft | 438 kts | 188° |
| 2026-04-27 12:51 | 48.32445 | 6.69030 | 35170 ft | 438 kts | 188° |
| 2026-04-27 12:52 | 48.26348 | 6.68795 | 35174 ft | 438 kts | 188° |
| 2026-04-27 12:52 | 48.20244 | 6.68701 | 35150 ft | 443 kts | 181° |
| 2026-04-27 12:52 | 48.17217 | 6.69748 | 35150 ft | 453 kts | 162° |
| 2026-04-27 12:53 | 48.12329 | 6.75740 | 35183 ft | 471 kts | 129° |
| 2026-04-27 12:53 | 48.08526 | 6.83729 | 35169 ft | 471 kts | 129° |
| 2026-04-27 12:54 | 48.04708 | 6.91654 | 35165 ft | 469 kts | 129° |
| 2026-04-27 12:54 | 48.00887 | 6.99556 | 35158 ft | 469 kts | 129° |
| 2026-04-27 12:55 | 47.97063 | 7.07440 | 35161 ft | 468 kts | 129° |
| 2026-04-27 12:55 | 47.93246 | 7.15292 | 35167 ft | 468 kts | 129° |
| 2026-04-27 12:56 | 47.89415 | 7.23143 | 35169 ft | 468 kts | 129° |
| 2026-04-27 12:56 | 47.85587 | 7.30970 | 35158 ft | 467 kts | 129° |
| 2026-04-27 12:57 | 47.81761 | 7.38770 | 35166 ft | 467 kts | 129° |
| 2026-04-27 12:57 | 47.77928 | 7.46564 | 35160 ft | 467 kts | 129° |
| 2026-04-27 12:58 | 47.73802 | 7.53830 | 35152 ft | 457 kts | 148° |
| 2026-04-27 12:58 | 47.71065 | 7.56135 | 35161 ft | 451 kts | 160° |
| 2026-04-27 12:58 | 47.68202 | 7.58105 | 35141 ft | 456 kts | 156° |
| 2026-04-27 12:59 | 47.62608 | 7.62551 | 35171 ft | 456 kts | 158° |
| 2026-04-27 12:59 | 47.56929 | 7.66682 | 35160 ft | 454 kts | 159° |
| 2026-04-27 13:00 | 47.51225 | 7.70711 | 35151 ft | 454 kts | 159° |
| 2026-04-27 13:00 | 47.45507 | 7.74708 | 35150 ft | 454 kts | 159° |
| 2026-04-27 13:01 | 47.39795 | 7.78692 | 35151 ft | 454 kts | 159° |
| 2026-04-27 13:01 | 47.34082 | 7.82670 | 35140 ft | 454 kts | 159° |
| 2026-04-27 13:02 | 47.28373 | 7.86635 | 35149 ft | 454 kts | 159° |
| 2026-04-27 13:02 | 47.22660 | 7.90593 | 35150 ft | 453 kts | 159° |
| 2026-04-27 13:03 | 47.16951 | 7.94538 | 35134 ft | 453 kts | 159° |
| 2026-04-27 13:03 | 47.11274 | 7.98453 | 35129 ft | 453 kts | 159° |
| 2026-04-27 13:04 | 47.05569 | 8.02377 | 35134 ft | 453 kts | 159° |
| 2026-04-27 13:04 | 46.99857 | 8.06298 | 35134 ft | 453 kts | 159° |
| 2026-04-27 13:05 | 46.94151 | 8.10202 | 35125 ft | 453 kts | 159° |
| 2026-04-27 13:05 | 46.88540 | 8.14040 | 34990 ft | 433 kts | 159° |
| 2026-04-27 13:06 | 46.85827 | 8.15886 | 34591 ft | 429 kts | 159° |
| 2026-04-27 13:06 | 46.83128 | 8.17723 | 34087 ft | 427 kts | 158° |
| 2026-04-27 13:06 | 46.80437 | 8.19554 | 33546 ft | 426 kts | 158° |
| 2026-04-27 13:06 | 46.77761 | 8.21374 | 33002 ft | 424 kts | 158° |
| 2026-04-27 13:07 | 46.75097 | 8.23183 | 32562 ft | 420 kts | 158° |
| 2026-04-27 13:07 | 46.72461 | 8.24971 | 32128 ft | 416 kts | 158° |
| 2026-04-27 13:07 | 46.69843 | 8.26744 | 31682 ft | 413 kts | 158° |
| 2026-04-27 13:07 | 46.67244 | 8.28502 | 31263 ft | 411 kts | 158° |
| 2026-04-27 13:08 | 46.64661 | 8.30247 | 30798 ft | 409 kts | 158° |
| 2026-04-27 13:08 | 46.62089 | 8.31984 | 30395 ft | 407 kts | 158° |
| 2026-04-27 13:08 | 46.59526 | 8.33712 | 29920 ft | 405 kts | 158° |
| 2026-04-27 13:08 | 46.56968 | 8.35434 | 29454 ft | 403 kts | 158° |
| 2026-04-27 13:09 | 46.54436 | 8.37139 | 29029 ft | 400 kts | 158° |
| 2026-04-27 13:09 | 46.51921 | 8.38831 | 28627 ft | 396 kts | 158° |
| 2026-04-27 13:09 | 46.49426 | 8.40507 | 28213 ft | 393 kts | 158° |
| 2026-04-27 13:09 | 46.46951 | 8.42168 | 27804 ft | 390 kts | 158° |
| 2026-04-27 13:10 | 46.44496 | 8.43814 | 27412 ft | 387 kts | 158° |
| 2026-04-27 13:10 | 46.42056 | 8.45447 | 27034 ft | 385 kts | 158° |
| 2026-04-27 13:10 | 46.39632 | 8.47068 | 26631 ft | 383 kts | 158° |
| 2026-04-27 13:10 | 46.37217 | 8.48682 | 26254 ft | 380 kts | 158° |
| 2026-04-27 13:11 | 46.34823 | 8.50283 | 25873 ft | 379 kts | 158° |
| 2026-04-27 13:11 | 46.32432 | 8.51877 | 25476 ft | 377 kts | 158° |
| 2026-04-27 13:11 | 46.30090 | 8.53438 | 25108 ft | 375 kts | 157° |
| 2026-04-27 13:11 | 46.27695 | 8.55031 | 24745 ft | 373 kts | 158° |
| 2026-04-27 13:12 | 46.25368 | 8.56578 | 24356 ft | 372 kts | 158° |
| 2026-04-27 13:12 | 46.23022 | 8.58138 | 23974 ft | 370 kts | 158° |
| 2026-04-27 13:12 | 46.20687 | 8.59691 | 23606 ft | 368 kts | 158° |
| 2026-04-27 13:12 | 46.18363 | 8.61235 | 23192 ft | 367 kts | 158° |
| 2026-04-27 13:13 | 46.16054 | 8.62765 | 22788 ft | 364 kts | 158° |
| 2026-04-27 13:13 | 46.13766 | 8.64280 | 22447 ft | 361 kts | 158° |
| 2026-04-27 13:13 | 46.11518 | 8.65875 | 22021 ft | 360 kts | 150° |
| 2026-04-27 13:13 | 46.09669 | 8.68296 | 21563 ft | 361 kts | 126° |
| 2026-04-27 13:14 | 46.08393 | 8.71373 | 21338 ft | 355 kts | 121° |
| 2026-04-27 13:14 | 46.07161 | 8.74436 | 21035 ft | 351 kts | 121° |
| 2026-04-27 13:14 | 46.05930 | 8.77457 | 20667 ft | 349 kts | 122° |
| 2026-04-27 13:14 | 46.04693 | 8.80461 | 20235 ft | 350 kts | 122° |
| 2026-04-27 13:15 | 46.03430 | 8.83515 | 19557 ft | 359 kts | 122° |
| 2026-04-27 13:15 | 46.02147 | 8.86632 | 19031 ft | 362 kts | 121° |
| 2026-04-27 13:15 | 46.00876 | 8.89719 | 18799 ft | 355 kts | 121° |
| 2026-04-27 13:15 | 45.99633 | 8.92740 | 18637 ft | 346 kts | 121° |
| 2026-04-27 13:16 | 45.98413 | 8.95698 | 18364 ft | 343 kts | 121° |
| 2026-04-27 13:16 | 45.97198 | 8.98636 | 17989 ft | 341 kts | 121° |
| 2026-04-27 13:16 | 45.95988 | 9.01550 | 17640 ft | 339 kts | 122° |
| 2026-04-27 13:16 | 45.94802 | 9.04402 | 17494 ft | 336 kts | 122° |
| 2026-04-27 13:17 | 45.93605 | 9.07288 | 17337 ft | 336 kts | 122° |
| 2026-04-27 13:17 | 45.92408 | 9.10176 | 17194 ft | 336 kts | 122° |
| 2026-04-27 13:17 | 45.91212 | 9.13062 | 17081 ft | 336 kts | 121° |
| 2026-04-27 13:17 | 45.90020 | 9.15932 | 16936 ft | 334 kts | 121° |
| 2026-04-27 13:18 | 45.88827 | 9.18803 | 16805 ft | 333 kts | 121° |
| 2026-04-27 13:18 | 45.87641 | 9.21655 | 16667 ft | 333 kts | 121° |
| 2026-04-27 13:18 | 45.86451 | 9.24507 | 16530 ft | 332 kts | 121° |
| 2026-04-27 13:18 | 45.85268 | 9.27351 | 16400 ft | 331 kts | 121° |
| 2026-04-27 13:19 | 45.84082 | 9.30193 | 16093 ft | 334 kts | 122° |
| 2026-04-27 13:19 | 45.82887 | 9.33054 | 15697 ft | 334 kts | 122° |
| 2026-04-27 13:19 | 45.82099 | 9.34939 | 15455 ft | 333 kts | 122° |
| 2026-04-27 13:19 | 45.80908 | 9.37782 | 15060 ft | 333 kts | 122° |
| 2026-04-27 13:20 | 45.79721 | 9.40610 | 14740 ft | 330 kts | 122° |
| 2026-04-27 13:20 | 45.78542 | 9.43416 | 14414 ft | 328 kts | 122° |
| 2026-04-27 13:20 | 45.77368 | 9.46211 | 14088 ft | 326 kts | 122° |
| 2026-04-27 13:20 | 45.76200 | 9.48986 | 13721 ft | 325 kts | 122° |
| 2026-04-27 13:21 | 45.75037 | 9.51746 | 13359 ft | 322 kts | 122° |
| 2026-04-27 13:21 | 45.73884 | 9.54481 | 13005 ft | 320 kts | 122° |
| 2026-04-27 13:21 | 45.72739 | 9.57195 | 12686 ft | 316 kts | 122° |
| 2026-04-27 13:21 | 45.71609 | 9.59871 | 12360 ft | 314 kts | 122° |
| 2026-04-27 13:22 | 45.70481 | 9.62534 | 12021 ft | 312 kts | 121° |
| 2026-04-27 13:22 | 45.69356 | 9.65183 | 11632 ft | 312 kts | 122° |
| 2026-04-27 13:22 | 45.68236 | 9.67826 | 11321 ft | 309 kts | 121° |
| 2026-04-27 13:22 | 45.66961 | 9.70284 | 10974 ft | 308 kts | 139° |
| 2026-04-27 13:23 | 45.65155 | 9.71874 | 10637 ft | 306 kts | 158° |
| 2026-04-27 13:23 | 45.63227 | 9.73088 | 10239 ft | 307 kts | 156° |
| 2026-04-27 13:23 | 45.61288 | 9.74351 | 9936 ft | 305 kts | 157° |
| 2026-04-27 13:23 | 45.59353 | 9.75589 | 9584 ft | 304 kts | 157° |
| 2026-04-27 13:24 | 45.57423 | 9.76808 | 9254 ft | 303 kts | 157° |
| 2026-04-27 13:24 | 45.55499 | 9.78010 | 8935 ft | 301 kts | 158° |
| 2026-04-27 13:24 | 45.53586 | 9.79195 | 8611 ft | 299 kts | 159° |
| 2026-04-27 13:24 | 45.51580 | 9.79877 | 8322 ft | 295 kts | 174° |
| 2026-04-27 13:25 | 45.49563 | 9.80365 | 7970 ft | 294 kts | 165° |
| 2026-04-27 13:25 | 45.47831 | 9.81814 | 7721 ft | 289 kts | 134° |
| 2026-04-27 13:25 | 45.46844 | 9.84244 | 7432 ft | 285 kts | 106° |
| 2026-04-27 13:25 | 45.46608 | 9.87016 | 7143 ft | 282 kts | 88° |
| 2026-04-27 13:26 | 45.46998 | 9.89735 | 6855 ft | 279 kts | 67° |
| 2026-04-27 13:26 | 45.47958 | 9.92074 | 6733 ft | 270 kts | 58° |
| 2026-04-27 13:26 | 45.48959 | 9.94302 | 6513 ft | 265 kts | 56° |
| 2026-04-27 13:26 | 45.50296 | 9.96064 | 6170 ft | 263 kts | 24° |
| 2026-04-27 13:27 | 45.52060 | 9.96460 | 5911 ft | 257 kts | 355° |
| 2026-04-27 13:27 | 45.53820 | 9.96300 | 5763 ft | 251 kts | 357° |
| 2026-04-27 13:27 | 45.55557 | 9.96182 | 5492 ft | 248 kts | 358° |
| 2026-04-27 13:27 | 45.57258 | 9.96077 | 5179 ft | 241 kts | 357° |
| 2026-04-27 13:28 | 45.58914 | 9.95982 | 4864 ft | 234 kts | 357° |
| 2026-04-27 13:28 | 45.60517 | 9.95872 | 4561 ft | 227 kts | 353° |
| 2026-04-27 13:28 | 45.61957 | 9.95069 | 4079 ft | 225 kts | 317° |
| 2026-04-27 13:28 | 45.62825 | 9.93259 | 3700 ft | 222 kts | 288° |
| 2026-04-27 13:29 | 45.63099 | 9.91115 | 3455 ft | 216 kts | 278° |
| 2026-04-27 13:29 | 45.63388 | 9.89018 | 3240 ft | 214 kts | 283° |
| 2026-04-27 13:29 | 45.63758 | 9.86957 | 2875 ft | 215 kts | 285° |
| 2026-04-27 13:29 | 45.64142 | 9.84935 | 2565 ft | 206 kts | 285° |
| 2026-04-27 13:30 | 45.64502 | 9.82995 | 2296 ft | 196 kts | 285° |
| 2026-04-27 13:30 | 45.64826 | 9.81232 | 2061 ft | 174 kts | 285° |
| 2026-04-27 13:30 | 45.65116 | 9.79656 | 1876 ft | 156 kts | 286° |
| 2026-04-27 13:30 | 45.65392 | 9.78171 | 1636 ft | 153 kts | 286° |
| 2026-04-27 13:31 | 45.65667 | 9.76702 | 1436 ft | 152 kts | 286° |
| 2026-04-27 13:31 | 45.65943 | 9.75242 | 1230 ft | 152 kts | 286° |
| 2026-04-27 13:31 | 45.66211 | 9.73793 | 1036 ft | 151 kts | 286° |
| 2026-04-27 13:31 | 45.66478 | 9.72345 | 831 ft | 150 kts | 285° |
| 2026-04-27 13:32 | 45.66722 | 9.71028 | 790 ft | 111 kts | 285° |
| 2026-04-27 13:32 | 45.66863 | 9.70271 | 790 ft | 49 kts | 285° |
| 2026-04-27 13:32 | 45.66850 | 9.69912 | 790 ft | 26 kts | 244° |
| 2026-04-27 13:32 | 45.66776 | 9.69861 | 790 ft | 10 kts | 140° |
| 2026-04-27 13:33 | 45.66747 | 9.69965 | 790 ft | 13 kts | 107° |
| 2026-04-27 13:33 | 45.66726 | 9.70083 | 790 ft | 10 kts | 104° |
| 2026-04-27 13:33 | 45.66709 | 9.70179 | 790 ft | 10 kts | 104° |
| 2026-04-27 13:33 | 45.66693 | 9.70272 | 790 ft | 8 kts | 105° |
| 2026-04-27 13:34 | 45.66687 | 9.70302 | 790 ft | 4 kts | 105° |
| 2026-04-27 13:34 | 45.66658 | 9.70356 | 790 ft | 8 kts | 173° |
| 2026-04-27 13:34 | 45.66611 | 9.70343 | 790 ft | 5 kts | 195° |
| 2026-04-27 13:34 | 45.66604 | 9.70340 | 790 ft | 0 kts | 195° |